sensor_id;sensor_type;location;lat;lon;timestamp;P1;durP1;ratioP1;P2;durP2;ratioP2
71464;SDS011;59274;49.874;9.154;2023-08-30T00:01:48;5.60;;;2.53;;
71464;SDS011;59274;49.874;9.154;2023-08-30T00:04:14;5.43;;;3.20;;
71464;SDS011;59274;49.874;9.154;2023-08-30T00:06:39;8.47;;;3.43;;
71464;SDS011;59274;49.874;9.154;2023-08-30T00:09:04;8.30;;;4.20;;
71464;SDS011;59274;49.874;9.154;2023-08-30T00:11:30;13.70;;;5.30;;
71464;SDS011;59274;49.874;9.154;2023-08-30T00:14:03;10.87;;;4.30;;
71464;SDS011;59274;49.874;9.154;2023-08-30T00:16:32;11.20;;;5.00;;
71464;SDS011;59274;49.874;9.154;2023-08-30T00:18:59;8.05;;;4.22;;
71464;SDS011;59274;49.874;9.154;2023-08-30T00:21:24;10.32;;;5.03;;
71464;SDS011;59274;49.874;9.154;2023-08-30T00:23:52;10.67;;;4.60;;
71464;SDS011;59274;49.874;9.154;2023-08-30T00:26:17;5.45;;;3.03;;
71464;SDS011;59274;49.874;9.154;2023-08-30T00:28:43;5.20;;;2.73;;
71464;SDS011;59274;49.874;9.154;2023-08-30T00:31:08;5.33;;;2.40;;
71464;SDS011;59274;49.874;9.154;2023-08-30T00:33:34;4.38;;;2.28;;
71464;SDS011;59274;49.874;9.154;2023-08-30T00:35:59;4.53;;;2.17;;
71464;SDS011;59274;49.874;9.154;2023-08-30T00:38:28;4.38;;;2.35;;
71464;SDS011;59274;49.874;9.154;2023-08-30T00:40:54;5.53;;;2.60;;
71464;SDS011;59274;49.874;9.154;2023-08-30T00:43:19;5.53;;;2.97;;
71464;SDS011;59274;49.874;9.154;2023-08-30T00:45:45;5.97;;;3.20;;
71464;SDS011;59274;49.874;9.154;2023-08-30T00:48:13;6.30;;;2.90;;
71464;SDS011;59274;49.874;9.154;2023-08-30T00:50:41;6.95;;;2.70;;
71464;SDS011;59274;49.874;9.154;2023-08-30T00:53:08;6.43;;;2.80;;
71464;SDS011;59274;49.874;9.154;2023-08-30T00:55:36;6.20;;;2.87;;
71464;SDS011;59274;49.874;9.154;2023-08-30T00:58:02;4.97;;;2.78;;
71464;SDS011;59274;49.874;9.154;2023-08-30T01:00:32;6.07;;;2.70;;
71464;SDS011;59274;49.874;9.154;2023-08-30T01:02:58;5.68;;;2.67;;
71464;SDS011;59274;49.874;9.154;2023-08-30T01:05:24;5.47;;;2.67;;
71464;SDS011;59274;49.874;9.154;2023-08-30T01:07:52;5.40;;;2.43;;
71464;SDS011;59274;49.874;9.154;2023-08-30T01:10:18;5.47;;;2.90;;
71464;SDS011;59274;49.874;9.154;2023-08-30T01:12:51;5.53;;;2.30;;
71464;SDS011;59274;49.874;9.154;2023-08-30T01:15:23;5.38;;;2.60;;
71464;SDS011;59274;49.874;9.154;2023-08-30T01:17:53;5.67;;;2.70;;
71464;SDS011;59274;49.874;9.154;2023-08-30T01:20:20;5.90;;;2.80;;
71464;SDS011;59274;49.874;9.154;2023-08-30T01:23:01;6.93;;;3.13;;
71464;SDS011;59274;49.874;9.154;2023-08-30T01:25:46;6.32;;;3.10;;
71464;SDS011;59274;49.874;9.154;2023-08-30T01:28:19;5.18;;;2.80;;
71464;SDS011;59274;49.874;9.154;2023-08-30T01:30:47;4.50;;;2.50;;
71464;SDS011;59274;49.874;9.154;2023-08-30T01:33:13;5.90;;;2.85;;
71464;SDS011;59274;49.874;9.154;2023-08-30T01:35:41;5.30;;;2.33;;
71464;SDS011;59274;49.874;9.154;2023-08-30T01:38:08;6.28;;;2.80;;
71464;SDS011;59274;49.874;9.154;2023-08-30T01:40:39;5.85;;;2.42;;
71464;SDS011;59274;49.874;9.154;2023-08-30T01:43:06;5.00;;;2.50;;
71464;SDS011;59274;49.874;9.154;2023-08-30T01:45:35;6.03;;;2.72;;
71464;SDS011;59274;49.874;9.154;2023-08-30T01:48:02;5.45;;;2.60;;
71464;SDS011;59274;49.874;9.154;2023-08-30T01:50:30;10.23;;;3.00;;
71464;SDS011;59274;49.874;9.154;2023-08-30T01:52:57;6.03;;;2.58;;
71464;SDS011;59274;49.874;9.154;2023-08-30T01:55:23;6.03;;;2.97;;
71464;SDS011;59274;49.874;9.154;2023-08-30T01:57:51;5.55;;;2.70;;
71464;SDS011;59274;49.874;9.154;2023-08-30T02:00:17;6.82;;;2.80;;
71464;SDS011;59274;49.874;9.154;2023-08-30T02:02:42;5.97;;;2.90;;
71464;SDS011;59274;49.874;9.154;2023-08-30T02:05:08;5.47;;;2.93;;
71464;SDS011;59274;49.874;9.154;2023-08-30T02:07:57;6.20;;;2.72;;
71464;SDS011;59274;49.874;9.154;2023-08-30T02:10:31;5.93;;;2.47;;
71464;SDS011;59274;49.874;9.154;2023-08-30T02:13:01;5.55;;;3.00;;
71464;SDS011;59274;49.874;9.154;2023-08-30T02:15:29;13.37;;;2.93;;
71464;SDS011;59274;49.874;9.154;2023-08-30T02:17:56;5.13;;;2.45;;
71464;SDS011;59274;49.874;9.154;2023-08-30T02:20:22;4.93;;;2.42;;
71464;SDS011;59274;49.874;9.154;2023-08-30T02:22:48;5.25;;;2.58;;
71464;SDS011;59274;49.874;9.154;2023-08-30T02:25:14;5.03;;;2.40;;
71464;SDS011;59274;49.874;9.154;2023-08-30T02:27:39;5.33;;;2.50;;
71464;SDS011;59274;49.874;9.154;2023-08-30T02:30:05;4.63;;;2.38;;
71464;SDS011;59274;49.874;9.154;2023-08-30T02:32:32;4.63;;;2.47;;
71464;SDS011;59274;49.874;9.154;2023-08-30T02:34:59;6.22;;;2.47;;
71464;SDS011;59274;49.874;9.154;2023-08-30T02:37:24;6.87;;;2.57;;
71464;SDS011;59274;49.874;9.154;2023-08-30T02:39:50;4.50;;;2.28;;
71464;SDS011;59274;49.874;9.154;2023-08-30T02:42:15;5.63;;;2.30;;
71464;SDS011;59274;49.874;9.154;2023-08-30T02:44:41;4.47;;;2.33;;
71464;SDS011;59274;49.874;9.154;2023-08-30T02:47:06;4.15;;;2.15;;
71464;SDS011;59274;49.874;9.154;2023-08-30T02:49:31;5.13;;;2.50;;
71464;SDS011;59274;49.874;9.154;2023-08-30T02:51:57;5.20;;;2.90;;
71464;SDS011;59274;49.874;9.154;2023-08-30T02:54:22;6.03;;;2.90;;
71464;SDS011;59274;49.874;9.154;2023-08-30T02:56:48;5.63;;;2.97;;
71464;SDS011;59274;49.874;9.154;2023-08-30T02:59:13;7.50;;;3.15;;
71464;SDS011;59274;49.874;9.154;2023-08-30T03:01:39;5.97;;;3.00;;
71464;SDS011;59274;49.874;9.154;2023-08-30T03:04:05;5.97;;;2.90;;
71464;SDS011;59274;49.874;9.154;2023-08-30T03:06:32;5.00;;;2.72;;
71464;SDS011;59274;49.874;9.154;2023-08-30T03:08:58;3.75;;;1.92;;
71464;SDS011;59274;49.874;9.154;2023-08-30T03:11:26;3.55;;;1.60;;
71464;SDS011;59274;49.874;9.154;2023-08-30T03:13:52;3.47;;;1.83;;
71464;SDS011;59274;49.874;9.154;2023-08-30T03:16:19;3.50;;;1.83;;
71464;SDS011;59274;49.874;9.154;2023-08-30T03:18:44;3.53;;;1.63;;
71464;SDS011;59274;49.874;9.154;2023-08-30T03:21:10;3.38;;;1.77;;
71464;SDS011;59274;49.874;9.154;2023-08-30T03:23:36;3.10;;;1.70;;
71464;SDS011;59274;49.874;9.154;2023-08-30T03:26:12;4.55;;;2.42;;
71464;SDS011;59274;49.874;9.154;2023-08-30T03:28:39;4.97;;;2.08;;
71464;SDS011;59274;49.874;9.154;2023-08-30T03:31:16;4.25;;;2.00;;
71464;SDS011;59274;49.874;9.154;2023-08-30T03:33:42;5.53;;;2.97;;
71464;SDS011;59274;49.874;9.154;2023-08-30T03:36:11;6.37;;;2.53;;
71464;SDS011;59274;49.874;9.154;2023-08-30T03:38:37;5.30;;;2.50;;
71464;SDS011;59274;49.874;9.154;2023-08-30T03:41:03;7.35;;;2.75;;
71464;SDS011;59274;49.874;9.154;2023-08-30T03:43:29;5.80;;;2.90;;
71464;SDS011;59274;49.874;9.154;2023-08-30T03:45:55;6.75;;;2.78;;
71464;SDS011;59274;49.874;9.154;2023-08-30T03:48:21;7.13;;;3.00;;
71464;SDS011;59274;49.874;9.154;2023-08-30T03:50:46;4.47;;;2.27;;
71464;SDS011;59274;49.874;9.154;2023-08-30T03:53:12;5.17;;;2.83;;
71464;SDS011;59274;49.874;9.154;2023-08-30T03:55:37;5.97;;;2.92;;
71464;SDS011;59274;49.874;9.154;2023-08-30T03:58:03;5.17;;;2.43;;
71464;SDS011;59274;49.874;9.154;2023-08-30T04:00:28;4.57;;;2.80;;
71464;SDS011;59274;49.874;9.154;2023-08-30T04:02:54;7.57;;;3.20;;
71464;SDS011;59274;49.874;9.154;2023-08-30T04:05:19;6.43;;;2.73;;
71464;SDS011;59274;49.874;9.154;2023-08-30T04:07:44;8.30;;;3.42;;
71464;SDS011;59274;49.874;9.154;2023-08-30T04:10:10;6.87;;;3.23;;
71464;SDS011;59274;49.874;9.154;2023-08-30T04:12:35;7.43;;;3.40;;
71464;SDS011;59274;49.874;9.154;2023-08-30T04:15:01;7.87;;;3.57;;
71464;SDS011;59274;49.874;9.154;2023-08-30T04:17:27;6.35;;;2.97;;
71464;SDS011;59274;49.874;9.154;2023-08-30T04:19:52;6.88;;;3.00;;
71464;SDS011;59274;49.874;9.154;2023-08-30T04:22:18;6.17;;;2.90;;
71464;SDS011;59274;49.874;9.154;2023-08-30T04:24:44;5.10;;;2.40;;
71464;SDS011;59274;49.874;9.154;2023-08-30T04:27:09;5.28;;;2.63;;
71464;SDS011;59274;49.874;9.154;2023-08-30T04:29:35;5.00;;;2.50;;
71464;SDS011;59274;49.874;9.154;2023-08-30T04:32:00;5.20;;;2.47;;
71464;SDS011;59274;49.874;9.154;2023-08-30T04:34:25;4.17;;;2.20;;
71464;SDS011;59274;49.874;9.154;2023-08-30T04:36:51;5.15;;;2.38;;
71464;SDS011;59274;49.874;9.154;2023-08-30T04:39:17;4.90;;;2.30;;
71464;SDS011;59274;49.874;9.154;2023-08-30T04:41:42;4.80;;;2.20;;
71464;SDS011;59274;49.874;9.154;2023-08-30T04:44:08;4.03;;;2.22;;
71464;SDS011;59274;49.874;9.154;2023-08-30T04:46:33;4.13;;;2.50;;
71464;SDS011;59274;49.874;9.154;2023-08-30T04:48:59;4.53;;;2.50;;
71464;SDS011;59274;49.874;9.154;2023-08-30T04:51:24;7.13;;;3.20;;
71464;SDS011;59274;49.874;9.154;2023-08-30T04:53:50;7.40;;;3.70;;
71464;SDS011;59274;49.874;9.154;2023-08-30T04:56:15;8.00;;;4.20;;
71464;SDS011;59274;49.874;9.154;2023-08-30T04:58:43;9.30;;;3.35;;
71464;SDS011;59274;49.874;9.154;2023-08-30T05:01:08;10.15;;;4.60;;
71464;SDS011;59274;49.874;9.154;2023-08-30T05:03:34;12.18;;;4.78;;
71464;SDS011;59274;49.874;9.154;2023-08-30T05:06:00;9.27;;;4.57;;
71464;SDS011;59274;49.874;9.154;2023-08-30T05:08:25;8.53;;;4.67;;
71464;SDS011;59274;49.874;9.154;2023-08-30T05:10:53;8.60;;;4.55;;
71464;SDS011;59274;49.874;9.154;2023-08-30T05:13:19;8.13;;;4.13;;
71464;SDS011;59274;49.874;9.154;2023-08-30T05:15:45;7.88;;;3.90;;
71464;SDS011;59274;49.874;9.154;2023-08-30T05:18:10;6.40;;;3.10;;
71464;SDS011;59274;49.874;9.154;2023-08-30T05:20:36;9.20;;;3.70;;
71464;SDS011;59274;49.874;9.154;2023-08-30T05:23:01;7.87;;;3.77;;
71464;SDS011;59274;49.874;9.154;2023-08-30T05:25:27;6.40;;;3.08;;
71464;SDS011;59274;49.874;9.154;2023-08-30T05:27:53;8.70;;;3.40;;
71464;SDS011;59274;49.874;9.154;2023-08-30T05:30:18;7.43;;;3.70;;
71464;SDS011;59274;49.874;9.154;2023-08-30T05:32:44;8.97;;;3.67;;
71464;SDS011;59274;49.874;9.154;2023-08-30T05:35:09;7.10;;;3.37;;
71464;SDS011;59274;49.874;9.154;2023-08-30T05:37:35;8.00;;;4.03;;
71464;SDS011;59274;49.874;9.154;2023-08-30T05:40:00;7.53;;;3.77;;
71464;SDS011;59274;49.874;9.154;2023-08-30T05:42:25;8.13;;;4.20;;
71464;SDS011;59274;49.874;9.154;2023-08-30T05:44:52;9.47;;;4.57;;
71464;SDS011;59274;49.874;9.154;2023-08-30T05:47:18;8.80;;;4.18;;
71464;SDS011;59274;49.874;9.154;2023-08-30T05:49:45;9.88;;;4.47;;
71464;SDS011;59274;49.874;9.154;2023-08-30T05:52:11;9.13;;;4.50;;
71464;SDS011;59274;49.874;9.154;2023-08-30T05:54:36;7.67;;;4.07;;
71464;SDS011;59274;49.874;9.154;2023-08-30T05:57:01;9.17;;;4.50;;
71464;SDS011;59274;49.874;9.154;2023-08-30T05:59:27;8.23;;;4.13;;
71464;SDS011;59274;49.874;9.154;2023-08-30T06:01:53;8.03;;;3.40;;
71464;SDS011;59274;49.874;9.154;2023-08-30T06:04:18;6.73;;;3.73;;
71464;SDS011;59274;49.874;9.154;2023-08-30T06:06:43;6.63;;;3.22;;
71464;SDS011;59274;49.874;9.154;2023-08-30T06:09:09;5.07;;;2.40;;
71464;SDS011;59274;49.874;9.154;2023-08-30T06:11:34;9.10;;;2.80;;
71464;SDS011;59274;49.874;9.154;2023-08-30T06:14:00;5.20;;;2.60;;
71464;SDS011;59274;49.874;9.154;2023-08-30T06:16:25;8.47;;;2.93;;
71464;SDS011;59274;49.874;9.154;2023-08-30T06:18:50;5.72;;;3.03;;
71464;SDS011;59274;49.874;9.154;2023-08-30T06:21:16;5.63;;;2.97;;
71464;SDS011;59274;49.874;9.154;2023-08-30T06:23:41;6.90;;;3.43;;
71464;SDS011;59274;49.874;9.154;2023-08-30T06:26:07;6.20;;;3.27;;
71464;SDS011;59274;49.874;9.154;2023-08-30T06:28:32;7.10;;;3.17;;
71464;SDS011;59274;49.874;9.154;2023-08-30T06:30:58;7.10;;;3.00;;
71464;SDS011;59274;49.874;9.154;2023-08-30T06:33:23;6.20;;;3.03;;
71464;SDS011;59274;49.874;9.154;2023-08-30T06:35:49;5.35;;;2.72;;
71464;SDS011;59274;49.874;9.154;2023-08-30T06:38:19;7.78;;;3.03;;
71464;SDS011;59274;49.874;9.154;2023-08-30T06:40:45;5.13;;;3.00;;
71464;SDS011;59274;49.874;9.154;2023-08-30T06:43:11;8.00;;;2.90;;
71464;SDS011;59274;49.874;9.154;2023-08-30T06:45:38;5.15;;;2.70;;
71464;SDS011;59274;49.874;9.154;2023-08-30T06:48:04;6.07;;;3.38;;
71464;SDS011;59274;49.874;9.154;2023-08-30T06:50:30;7.65;;;2.90;;
71464;SDS011;59274;49.874;9.154;2023-08-30T06:52:56;4.97;;;2.33;;
71464;SDS011;59274;49.874;9.154;2023-08-30T06:55:21;7.30;;;2.50;;
71464;SDS011;59274;49.874;9.154;2023-08-30T06:57:47;5.30;;;2.77;;
71464;SDS011;59274;49.874;9.154;2023-08-30T07:00:14;7.00;;;3.33;;
71464;SDS011;59274;49.874;9.154;2023-08-30T07:02:40;6.40;;;3.20;;
71464;SDS011;59274;49.874;9.154;2023-08-30T07:05:05;6.37;;;3.03;;
71464;SDS011;59274;49.874;9.154;2023-08-30T07:07:31;7.13;;;3.60;;
71464;SDS011;59274;49.874;9.154;2023-08-30T07:09:57;7.20;;;3.42;;
71464;SDS011;59274;49.874;9.154;2023-08-30T07:12:23;5.70;;;3.10;;
71464;SDS011;59274;49.874;9.154;2023-08-30T07:14:48;5.32;;;3.00;;
71464;SDS011;59274;49.874;9.154;2023-08-30T07:17:14;5.93;;;3.10;;
71464;SDS011;59274;49.874;9.154;2023-08-30T07:19:39;7.35;;;3.50;;
71464;SDS011;59274;49.874;9.154;2023-08-30T07:22:05;7.90;;;3.83;;
71464;SDS011;59274;49.874;9.154;2023-08-30T07:24:30;8.53;;;3.70;;
71464;SDS011;59274;49.874;9.154;2023-08-30T07:26:56;5.90;;;3.23;;
71464;SDS011;59274;49.874;9.154;2023-08-30T07:29:21;8.83;;;3.67;;
71464;SDS011;59274;49.874;9.154;2023-08-30T07:31:50;6.25;;;3.28;;
71464;SDS011;59274;49.874;9.154;2023-08-30T07:34:18;6.57;;;3.60;;
71464;SDS011;59274;49.874;9.154;2023-08-30T07:36:44;7.23;;;3.53;;
71464;SDS011;59274;49.874;9.154;2023-08-30T07:39:09;7.73;;;3.97;;
71464;SDS011;59274;49.874;9.154;2023-08-30T07:41:35;7.25;;;3.75;;
71464;SDS011;59274;49.874;9.154;2023-08-30T07:44:00;6.70;;;3.53;;
71464;SDS011;59274;49.874;9.154;2023-08-30T07:46:26;7.50;;;3.63;;
71464;SDS011;59274;49.874;9.154;2023-08-30T07:48:51;6.05;;;3.05;;
71464;SDS011;59274;49.874;9.154;2023-08-30T07:51:17;6.87;;;3.70;;
71464;SDS011;59274;49.874;9.154;2023-08-30T07:53:42;6.60;;;3.50;;
71464;SDS011;59274;49.874;9.154;2023-08-30T07:56:08;7.43;;;3.70;;
71464;SDS011;59274;49.874;9.154;2023-08-30T07:58:33;6.20;;;3.05;;
71464;SDS011;59274;49.874;9.154;2023-08-30T08:00:59;7.30;;;3.57;;
71464;SDS011;59274;49.874;9.154;2023-08-30T08:03:25;5.80;;;3.22;;
71464;SDS011;59274;49.874;9.154;2023-08-30T08:05:50;7.73;;;3.47;;
71464;SDS011;59274;49.874;9.154;2023-08-30T08:08:16;6.03;;;3.53;;
71464;SDS011;59274;49.874;9.154;2023-08-30T08:10:42;7.07;;;3.83;;
71464;SDS011;59274;49.874;9.154;2023-08-30T08:13:10;7.40;;;3.60;;
71464;SDS011;59274;49.874;9.154;2023-08-30T08:15:37;7.00;;;3.33;;
71464;SDS011;59274;49.874;9.154;2023-08-30T08:18:03;6.37;;;3.60;;
71464;SDS011;59274;49.874;9.154;2023-08-30T08:20:29;7.27;;;3.20;;
71464;SDS011;59274;49.874;9.154;2023-08-30T08:22:55;6.15;;;3.15;;
71464;SDS011;59274;49.874;9.154;2023-08-30T08:25:20;7.07;;;3.63;;
71464;SDS011;59274;49.874;9.154;2023-08-30T08:27:48;6.38;;;3.58;;
71464;SDS011;59274;49.874;9.154;2023-08-30T08:30:13;8.17;;;4.23;;
71464;SDS011;59274;49.874;9.154;2023-08-30T08:32:39;6.60;;;3.53;;
71464;SDS011;59274;49.874;9.154;2023-08-30T08:35:04;7.20;;;3.87;;
71464;SDS011;59274;49.874;9.154;2023-08-30T08:37:31;6.83;;;3.50;;
71464;SDS011;59274;49.874;9.154;2023-08-30T08:39:59;6.50;;;3.90;;
71464;SDS011;59274;49.874;9.154;2023-08-30T08:42:25;7.33;;;3.67;;
71464;SDS011;59274;49.874;9.154;2023-08-30T08:44:53;6.07;;;3.38;;
71464;SDS011;59274;49.874;9.154;2023-08-30T08:47:20;6.10;;;3.70;;
71464;SDS011;59274;49.874;9.154;2023-08-30T08:49:49;7.40;;;3.80;;
71464;SDS011;59274;49.874;9.154;2023-08-30T08:52:15;8.38;;;3.90;;
71464;SDS011;59274;49.874;9.154;2023-08-30T08:54:41;7.53;;;3.77;;
71464;SDS011;59274;49.874;9.154;2023-08-30T08:57:08;8.85;;;3.60;;
71464;SDS011;59274;49.874;9.154;2023-08-30T08:59:33;7.07;;;3.73;;
71464;SDS011;59274;49.874;9.154;2023-08-30T09:02:00;7.00;;;3.65;;
71464;SDS011;59274;49.874;9.154;2023-08-30T09:04:25;6.25;;;3.30;;
71464;SDS011;59274;49.874;9.154;2023-08-30T09:06:51;6.97;;;3.57;;
71464;SDS011;59274;49.874;9.154;2023-08-30T09:09:17;6.07;;;3.17;;
71464;SDS011;59274;49.874;9.154;2023-08-30T09:11:42;5.97;;;3.50;;
71464;SDS011;59274;49.874;9.154;2023-08-30T09:14:08;6.07;;;3.10;;
71464;SDS011;59274;49.874;9.154;2023-08-30T09:16:34;7.55;;;3.50;;
71464;SDS011;59274;49.874;9.154;2023-08-30T09:19:00;5.80;;;3.20;;
71464;SDS011;59274;49.874;9.154;2023-08-30T09:21:27;6.70;;;3.70;;
71464;SDS011;59274;49.874;9.154;2023-08-30T09:26:25;9.13;;;3.88;;
71464;SDS011;59274;49.874;9.154;2023-08-30T09:28:51;6.18;;;3.38;;
71464;SDS011;59274;49.874;9.154;2023-08-30T09:31:16;6.80;;;3.57;;
71464;SDS011;59274;49.874;9.154;2023-08-30T09:33:46;7.25;;;3.58;;
71464;SDS011;59274;49.874;9.154;2023-08-30T09:36:14;6.80;;;3.50;;
71464;SDS011;59274;49.874;9.154;2023-08-30T09:38:40;7.33;;;3.50;;
71464;SDS011;59274;49.874;9.154;2023-08-30T09:41:05;7.73;;;3.73;;
71464;SDS011;59274;49.874;9.154;2023-08-30T09:43:32;6.93;;;3.88;;
71464;SDS011;59274;49.874;9.154;2023-08-30T09:45:58;7.80;;;3.40;;
71464;SDS011;59274;49.874;9.154;2023-08-30T09:48:28;6.80;;;3.58;;
71464;SDS011;59274;49.874;9.154;2023-08-30T09:50:54;7.88;;;3.45;;
71464;SDS011;59274;49.874;9.154;2023-08-30T09:53:24;6.00;;;3.08;;
71464;SDS011;59274;49.874;9.154;2023-08-30T09:55:53;6.20;;;3.33;;
71464;SDS011;59274;49.874;9.154;2023-08-30T09:58:19;7.07;;;3.38;;
71464;SDS011;59274;49.874;9.154;2023-08-30T10:00:46;6.72;;;3.63;;
71464;SDS011;59274;49.874;9.154;2023-08-30T10:03:16;5.93;;;3.40;;
71464;SDS011;59274;49.874;9.154;2023-08-30T10:05:42;6.07;;;3.08;;
71464;SDS011;59274;49.874;9.154;2023-08-30T10:08:08;5.32;;;2.88;;
71464;SDS011;59274;49.874;9.154;2023-08-30T10:10:34;5.10;;;2.78;;
71464;SDS011;59274;49.874;9.154;2023-08-30T10:13:01;6.33;;;3.03;;
71464;SDS011;59274;49.874;9.154;2023-08-30T10:15:26;5.07;;;2.97;;
71464;SDS011;59274;49.874;9.154;2023-08-30T10:17:58;5.88;;;3.00;;
71464;SDS011;59274;49.874;9.154;2023-08-30T10:20:23;6.30;;;3.07;;
71464;SDS011;59274;49.874;9.154;2023-08-30T10:22:49;5.65;;;3.00;;
71464;SDS011;59274;49.874;9.154;2023-08-30T10:25:24;7.10;;;3.42;;
71464;SDS011;59274;49.874;9.154;2023-08-30T10:27:54;5.82;;;3.00;;
71464;SDS011;59274;49.874;9.154;2023-08-30T10:30:21;4.10;;;2.00;;
71464;SDS011;59274;49.874;9.154;2023-08-30T10:32:48;5.93;;;2.83;;
71464;SDS011;59274;49.874;9.154;2023-08-30T10:35:15;5.40;;;2.33;;
71464;SDS011;59274;49.874;9.154;2023-08-30T10:37:42;5.03;;;2.47;;
71464;SDS011;59274;49.874;9.154;2023-08-30T10:40:18;4.80;;;2.70;;
71464;SDS011;59274;49.874;9.154;2023-08-30T10:42:45;4.50;;;2.60;;
71464;SDS011;59274;49.874;9.154;2023-08-30T10:45:10;3.33;;;2.20;;
71464;SDS011;59274;49.874;9.154;2023-08-30T10:47:36;5.30;;;2.70;;
71464;SDS011;59274;49.874;9.154;2023-08-30T10:50:06;4.55;;;2.70;;
71464;SDS011;59274;49.874;9.154;2023-08-30T10:52:33;5.85;;;2.88;;
71464;SDS011;59274;49.874;9.154;2023-08-30T10:57:31;3.95;;;2.10;;
71464;SDS011;59274;49.874;9.154;2023-08-30T11:00:05;3.80;;;2.00;;
71464;SDS011;59274;49.874;9.154;2023-08-30T11:02:33;3.13;;;1.83;;
71464;SDS011;59274;49.874;9.154;2023-08-30T11:04:59;3.80;;;1.90;;
71464;SDS011;59274;49.874;9.154;2023-08-30T11:07:25;3.53;;;1.80;;
71464;SDS011;59274;49.874;9.154;2023-08-30T11:09:51;3.60;;;1.80;;
71464;SDS011;59274;49.874;9.154;2023-08-30T11:12:17;3.17;;;1.98;;
71464;SDS011;59274;49.874;9.154;2023-08-30T11:14:43;4.13;;;1.95;;
71464;SDS011;59274;49.874;9.154;2023-08-30T11:17:11;3.07;;;2.00;;
71464;SDS011;59274;49.874;9.154;2023-08-30T11:19:37;4.03;;;2.40;;
71464;SDS011;59274;49.874;9.154;2023-08-30T11:22:02;3.47;;;1.87;;
71464;SDS011;59274;49.874;9.154;2023-08-30T11:24:28;2.97;;;1.70;;
71464;SDS011;59274;49.874;9.154;2023-08-30T11:26:54;2.97;;;1.77;;
71464;SDS011;59274;49.874;9.154;2023-08-30T11:29:20;3.67;;;2.10;;
71464;SDS011;59274;49.874;9.154;2023-08-30T11:31:45;4.17;;;2.03;;
71464;SDS011;59274;49.874;9.154;2023-08-30T11:34:12;4.03;;;1.90;;
71464;SDS011;59274;49.874;9.154;2023-08-30T11:36:37;3.92;;;2.00;;
71464;SDS011;59274;49.874;9.154;2023-08-30T11:39:03;3.13;;;1.73;;
71464;SDS011;59274;49.874;9.154;2023-08-30T11:41:29;3.08;;;1.88;;
71464;SDS011;59274;49.874;9.154;2023-08-30T11:43:56;3.40;;;2.08;;
71464;SDS011;59274;49.874;9.154;2023-08-30T11:46:23;3.63;;;2.00;;
71464;SDS011;59274;49.874;9.154;2023-08-30T11:48:50;3.67;;;1.98;;
71464;SDS011;59274;49.874;9.154;2023-08-30T11:51:17;2.72;;;1.80;;
71464;SDS011;59274;49.874;9.154;2023-08-30T11:53:43;3.40;;;2.03;;
71464;SDS011;59274;49.874;9.154;2023-08-30T11:56:09;3.10;;;1.70;;
71464;SDS011;59274;49.874;9.154;2023-08-30T11:58:35;2.83;;;1.80;;
71464;SDS011;59274;49.874;9.154;2023-08-30T12:01:02;5.10;;;1.80;;
71464;SDS011;59274;49.874;9.154;2023-08-30T12:03:28;2.33;;;1.60;;
71464;SDS011;59274;49.874;9.154;2023-08-30T12:05:54;4.35;;;1.65;;
71464;SDS011;59274;49.874;9.154;2023-08-30T12:08:24;4.32;;;1.90;;
71464;SDS011;59274;49.874;9.154;2023-08-30T12:10:54;3.40;;;1.80;;
71464;SDS011;59274;49.874;9.154;2023-08-30T12:13:24;3.25;;;1.77;;
71464;SDS011;59274;49.874;9.154;2023-08-30T12:15:51;2.65;;;1.70;;
71464;SDS011;59274;49.874;9.154;2023-08-30T12:18:17;2.40;;;1.70;;
71464;SDS011;59274;49.874;9.154;2023-08-30T12:20:55;3.40;;;1.90;;
71464;SDS011;59274;49.874;9.154;2023-08-30T12:23:22;3.35;;;1.80;;
71464;SDS011;59274;49.874;9.154;2023-08-30T12:26:08;3.83;;;1.90;;
71464;SDS011;59274;49.874;9.154;2023-08-30T12:28:35;4.00;;;1.93;;
71464;SDS011;59274;49.874;9.154;2023-08-30T12:31:02;3.13;;;1.98;;
71464;SDS011;59274;49.874;9.154;2023-08-30T12:33:34;2.38;;;1.60;;
71464;SDS011;59274;49.874;9.154;2023-08-30T12:36:00;2.72;;;1.80;;
71464;SDS011;59274;49.874;9.154;2023-08-30T12:38:26;2.33;;;1.70;;
71464;SDS011;59274;49.874;9.154;2023-08-30T12:40:55;2.50;;;1.70;;
71464;SDS011;59274;49.874;9.154;2023-08-30T12:43:22;3.15;;;2.00;;
71464;SDS011;59274;49.874;9.154;2023-08-30T12:45:48;3.20;;;1.92;;
71464;SDS011;59274;49.874;9.154;2023-08-30T12:48:15;2.57;;;1.77;;
71464;SDS011;59274;49.874;9.154;2023-08-30T12:50:44;3.88;;;1.90;;
71464;SDS011;59274;49.874;9.154;2023-08-30T12:53:10;2.83;;;1.80;;
71464;SDS011;59274;49.874;9.154;2023-08-30T12:55:36;2.53;;;1.80;;
71464;SDS011;59274;49.874;9.154;2023-08-30T12:58:05;2.03;;;1.70;;
71464;SDS011;59274;49.874;9.154;2023-08-30T13:00:32;3.27;;;2.10;;
71464;SDS011;59274;49.874;9.154;2023-08-30T13:02:58;2.65;;;1.70;;
71464;SDS011;59274;49.874;9.154;2023-08-30T13:05:24;2.60;;;1.67;;
71464;SDS011;59274;49.874;9.154;2023-08-30T13:07:49;3.00;;;1.90;;
71464;SDS011;59274;49.874;9.154;2023-08-30T13:10:15;3.08;;;1.60;;
71464;SDS011;59274;49.874;9.154;2023-08-30T13:12:41;3.40;;;1.70;;
71464;SDS011;59274;49.874;9.154;2023-08-30T13:15:07;4.55;;;1.70;;
71464;SDS011;59274;49.874;9.154;2023-08-30T13:17:33;3.63;;;1.67;;
71464;SDS011;59274;49.874;9.154;2023-08-30T13:19:59;2.60;;;1.60;;
71464;SDS011;59274;49.874;9.154;2023-08-30T13:22:24;2.53;;;1.67;;
71464;SDS011;59274;49.874;9.154;2023-08-30T13:24:51;1.93;;;1.23;;
71464;SDS011;59274;49.874;9.154;2023-08-30T13:27:17;2.40;;;1.50;;
71464;SDS011;59274;49.874;9.154;2023-08-30T13:29:43;2.58;;;1.77;;
71464;SDS011;59274;49.874;9.154;2023-08-30T13:32:08;2.37;;;1.53;;
71464;SDS011;59274;49.874;9.154;2023-08-30T13:34:34;2.10;;;1.60;;
71464;SDS011;59274;49.874;9.154;2023-08-30T13:36:59;3.22;;;2.17;;
71464;SDS011;59274;49.874;9.154;2023-08-30T13:39:24;2.33;;;1.70;;
71464;SDS011;59274;49.874;9.154;2023-08-30T13:41:50;2.57;;;1.50;;
71464;SDS011;59274;49.874;9.154;2023-08-30T13:44:15;2.30;;;1.50;;
71464;SDS011;59274;49.874;9.154;2023-08-30T13:46:41;2.50;;;1.80;;
71464;SDS011;59274;49.874;9.154;2023-08-30T13:49:08;4.18;;;1.50;;
71464;SDS011;59274;49.874;9.154;2023-08-30T13:51:33;2.47;;;1.70;;
71464;SDS011;59274;49.874;9.154;2023-08-30T13:53:59;3.40;;;1.90;;
71464;SDS011;59274;49.874;9.154;2023-08-30T13:56:24;3.73;;;1.90;;
71464;SDS011;59274;49.874;9.154;2023-08-30T13:58:50;4.20;;;1.88;;
71464;SDS011;59274;49.874;9.154;2023-08-30T14:01:16;3.37;;;2.03;;
71464;SDS011;59274;49.874;9.154;2023-08-30T14:03:42;4.75;;;2.17;;
71464;SDS011;59274;49.874;9.154;2023-08-30T14:06:08;4.05;;;1.80;;
71464;SDS011;59274;49.874;9.154;2023-08-30T14:08:36;3.33;;;2.10;;
71464;SDS011;59274;49.874;9.154;2023-08-30T14:11:02;3.77;;;1.97;;
71464;SDS011;59274;49.874;9.154;2023-08-30T14:13:28;3.75;;;1.58;;
71464;SDS011;59274;49.874;9.154;2023-08-30T14:15:57;4.65;;;1.90;;
71464;SDS011;59274;49.874;9.154;2023-08-30T14:18:24;2.80;;;1.70;;
71464;SDS011;59274;49.874;9.154;2023-08-30T14:20:49;3.90;;;1.70;;
71464;SDS011;59274;49.874;9.154;2023-08-30T14:23:14;3.07;;;1.80;;
71464;SDS011;59274;49.874;9.154;2023-08-30T14:25:40;2.37;;;1.67;;
71464;SDS011;59274;49.874;9.154;2023-08-30T14:28:05;3.70;;;1.87;;
71464;SDS011;59274;49.874;9.154;2023-08-30T14:30:31;3.47;;;2.00;;
71464;SDS011;59274;49.874;9.154;2023-08-30T14:32:56;2.50;;;1.55;;
71464;SDS011;59274;49.874;9.154;2023-08-30T14:35:21;4.67;;;1.87;;
71464;SDS011;59274;49.874;9.154;2023-08-30T14:37:49;2.78;;;1.85;;
71464;SDS011;59274;49.874;9.154;2023-08-30T14:40:15;2.63;;;1.80;;
71464;SDS011;59274;49.874;9.154;2023-08-30T14:42:40;3.13;;;2.10;;
71464;SDS011;59274;49.874;9.154;2023-08-30T14:45:06;3.87;;;1.80;;
71464;SDS011;59274;49.874;9.154;2023-08-30T14:47:32;3.42;;;2.00;;
71464;SDS011;59274;49.874;9.154;2023-08-30T14:49:58;2.60;;;1.63;;